sensor_id;sensor_type;location;lat;lon;timestamp;P1;durP1;ratioP1;P2;durP2;ratioP2
41685;SDS011;27370;42.764;23.432;2023-04-24T11:57:43;8.77;;;4.00;;
41685;SDS011;27370;42.764;23.432;2023-04-24T12:00:16;8.82;;;4.07;;
41685;SDS011;27370;42.764;23.432;2023-04-24T12:02:43;7.22;;;3.53;;
41685;SDS011;27370;42.764;23.432;2023-04-24T12:05:18;6.07;;;3.53;;
41685;SDS011;27370;42.764;23.432;2023-04-24T12:07:48;5.82;;;3.00;;
41685;SDS011;27370;42.764;23.432;2023-04-24T12:10:14;6.25;;;3.20;;
41685;SDS011;27370;42.764;23.432;2023-04-24T12:12:40;5.13;;;2.90;;
41685;SDS011;27370;42.764;23.432;2023-04-24T12:15:08;5.80;;;3.40;;
41685;SDS011;27370;42.764;23.432;2023-04-24T12:17:35;6.72;;;3.53;;
41685;SDS011;27370;42.764;23.432;2023-04-24T12:20:05;7.15;;;3.33;;
41685;SDS011;27370;42.764;23.432;2023-04-24T12:25:14;9.25;;;3.60;;
41685;SDS011;27370;42.764;23.432;2023-04-24T12:27:41;7.93;;;3.53;;
41685;SDS011;27370;42.764;23.432;2023-04-24T12:30:09;8.32;;;3.35;;
41685;SDS011;27370;42.764;23.432;2023-04-24T12:32:43;6.72;;;3.05;;
41685;SDS011;27370;42.764;23.432;2023-04-24T12:35:10;6.43;;;3.30;;
41685;SDS011;27370;42.764;23.432;2023-04-24T12:37:35;5.35;;;3.20;;
41685;SDS011;27370;42.764;23.432;2023-04-24T12:40:08;7.38;;;3.38;;
41685;SDS011;27370;42.764;23.432;2023-04-24T12:42:36;7.85;;;3.28;;
41685;SDS011;27370;42.764;23.432;2023-04-24T12:45:08;6.90;;;3.03;;
41685;SDS011;27370;42.764;23.432;2023-04-24T12:47:34;8.35;;;3.05;;
41685;SDS011;27370;42.764;23.432;2023-04-24T12:50:01;6.88;;;3.38;;
41685;SDS011;27370;42.764;23.432;2023-04-24T12:52:27;6.57;;;3.22;;
41685;SDS011;27370;42.764;23.432;2023-04-24T12:54:55;5.20;;;3.05;;
41685;SDS011;27370;42.764;23.432;2023-04-24T12:57:23;8.52;;;3.00;;
41685;SDS011;27370;42.764;23.432;2023-04-24T12:59:49;6.65;;;3.10;;
41685;SDS011;27370;42.764;23.432;2023-04-24T13:02:14;5.25;;;2.67;;
41685;SDS011;27370;42.764;23.432;2023-04-24T13:04:44;4.95;;;2.60;;
41685;SDS011;27370;42.764;23.432;2023-04-24T13:07:11;4.65;;;3.13;;
41685;SDS011;27370;42.764;23.432;2023-04-24T13:09:37;7.57;;;3.15;;
41685;SDS011;27370;42.764;23.432;2023-04-24T13:12:03;6.90;;;2.83;;
41685;SDS011;27370;42.764;23.432;2023-04-24T13:14:30;5.10;;;3.17;;
41685;SDS011;27370;42.764;23.432;2023-04-24T13:16:56;5.05;;;2.97;;
41685;SDS011;27370;42.764;23.432;2023-04-24T13:19:23;7.95;;;3.30;;
41685;SDS011;27370;42.764;23.432;2023-04-24T13:21:51;7.13;;;3.25;;
41685;SDS011;27370;42.764;23.432;2023-04-24T13:24:17;5.65;;;2.97;;
41685;SDS011;27370;42.764;23.432;2023-04-24T13:26:43;4.95;;;2.97;;
41685;SDS011;27370;42.764;23.432;2023-04-24T13:29:08;6.22;;;2.90;;
41685;SDS011;27370;42.764;23.432;2023-04-24T13:31:34;6.68;;;2.78;;
41685;SDS011;27370;42.764;23.432;2023-04-24T13:34:00;4.75;;;2.72;;
41685;SDS011;27370;42.764;23.432;2023-04-24T13:36:26;6.22;;;2.88;;
41685;SDS011;27370;42.764;23.432;2023-04-24T13:38:51;6.13;;;3.03;;
41685;SDS011;27370;42.764;23.432;2023-04-24T13:41:17;7.95;;;3.35;;
41685;SDS011;27370;42.764;23.432;2023-04-24T13:43:42;5.75;;;3.08;;
41685;SDS011;27370;42.764;23.432;2023-04-24T13:46:08;6.05;;;3.15;;
41685;SDS011;27370;42.764;23.432;2023-04-24T13:48:34;6.70;;;3.22;;
41685;SDS011;27370;42.764;23.432;2023-04-24T13:50:59;6.38;;;2.90;;
41685;SDS011;27370;42.764;23.432;2023-04-24T13:53:25;5.32;;;3.40;;
41685;SDS011;27370;42.764;23.432;2023-04-24T13:55:50;5.53;;;2.72;;
41685;SDS011;27370;42.764;23.432;2023-04-24T13:58:16;6.18;;;3.03;;
41685;SDS011;27370;42.764;23.432;2023-04-24T14:00:42;5.57;;;3.10;;
41685;SDS011;27370;42.764;23.432;2023-04-24T14:03:08;6.53;;;2.70;;
41685;SDS011;27370;42.764;23.432;2023-04-24T14:05:33;4.60;;;2.60;;
41685;SDS011;27370;42.764;23.432;2023-04-24T14:07:59;5.20;;;2.42;;
41685;SDS011;27370;42.764;23.432;2023-04-24T14:10:25;5.28;;;2.47;;
41685;SDS011;27370;42.764;23.432;2023-04-24T14:12:52;4.32;;;2.65;;
41685;SDS011;27370;42.764;23.432;2023-04-24T14:15:18;7.40;;;2.50;;
41685;SDS011;27370;42.764;23.432;2023-04-24T14:17:44;7.38;;;2.83;;
41685;SDS011;27370;42.764;23.432;2023-04-24T14:20:09;4.85;;;2.40;;
41685;SDS011;27370;42.764;23.432;2023-04-24T14:22:35;4.57;;;2.50;;
41685;SDS011;27370;42.764;23.432;2023-04-24T14:25:01;6.80;;;3.05;;
41685;SDS011;27370;42.764;23.432;2023-04-24T14:27:26;4.88;;;2.65;;
41685;SDS011;27370;42.764;23.432;2023-04-24T14:29:52;5.00;;;2.83;;
41685;SDS011;27370;42.764;23.432;2023-04-24T14:32:18;7.57;;;2.83;;
41685;SDS011;27370;42.764;23.432;2023-04-24T14:34:43;4.45;;;2.65;;
41685;SDS011;27370;42.764;23.432;2023-04-24T14:37:09;6.25;;;3.00;;
41685;SDS011;27370;42.764;23.432;2023-04-24T14:39:34;6.72;;;3.15;;
41685;SDS011;27370;42.764;23.432;2023-04-24T14:42:00;6.25;;;2.38;;
41685;SDS011;27370;42.764;23.432;2023-04-24T14:44:26;7.88;;;2.83;;
41685;SDS011;27370;42.764;23.432;2023-04-24T14:46:52;6.97;;;3.15;;
41685;SDS011;27370;42.764;23.432;2023-04-24T14:49:18;5.55;;;3.13;;
41685;SDS011;27370;42.764;23.432;2023-04-24T14:51:43;8.10;;;3.10;;
41685;SDS011;27370;42.764;23.432;2023-04-24T14:54:09;5.07;;;2.95;;
41685;SDS011;27370;42.764;23.432;2023-04-24T14:56:35;7.43;;;3.33;;
41685;SDS011;27370;42.764;23.432;2023-04-24T14:59:00;6.80;;;3.38;;
41685;SDS011;27370;42.764;23.432;2023-04-24T15:01:26;7.57;;;3.67;;
41685;SDS011;27370;42.764;23.432;2023-04-24T15:03:52;7.20;;;3.13;;
41685;SDS011;27370;42.764;23.432;2023-04-24T15:06:17;8.73;;;3.60;;
41685;SDS011;27370;42.764;23.432;2023-04-24T15:08:43;7.40;;;3.50;;
41685;SDS011;27370;42.764;23.432;2023-04-24T15:11:09;9.82;;;3.58;;
41685;SDS011;27370;42.764;23.432;2023-04-24T15:13:35;6.10;;;3.40;;
41685;SDS011;27370;42.764;23.432;2023-04-24T15:16:01;6.43;;;3.47;;
41685;SDS011;27370;42.764;23.432;2023-04-24T15:18:27;7.90;;;3.30;;
41685;SDS011;27370;42.764;23.432;2023-04-24T15:20:54;5.65;;;3.40;;
41685;SDS011;27370;42.764;23.432;2023-04-24T15:23:20;7.47;;;4.15;;
41685;SDS011;27370;42.764;23.432;2023-04-24T15:25:46;7.55;;;3.83;;
41685;SDS011;27370;42.764;23.432;2023-04-24T15:28:11;8.68;;;3.55;;
41685;SDS011;27370;42.764;23.432;2023-04-24T15:30:37;8.05;;;3.60;;
41685;SDS011;27370;42.764;23.432;2023-04-24T15:33:03;7.43;;;3.55;;
41685;SDS011;27370;42.764;23.432;2023-04-24T15:35:29;8.98;;;4.25;;
41685;SDS011;27370;42.764;23.432;2023-04-24T15:37:54;7.88;;;3.40;;
41685;SDS011;27370;42.764;23.432;2023-04-24T15:40:20;6.30;;;3.47;;
41685;SDS011;27370;42.764;23.432;2023-04-24T15:42:46;6.32;;;3.42;;
41685;SDS011;27370;42.764;23.432;2023-04-24T15:45:11;7.40;;;3.80;;
41685;SDS011;27370;42.764;23.432;2023-04-24T15:47:37;12.40;;;5.95;;
41685;SDS011;27370;42.764;23.432;2023-04-24T15:50:03;17.52;;;11.45;;
41685;SDS011;27370;42.764;23.432;2023-04-24T15:52:30;13.95;;;7.57;;
41685;SDS011;27370;42.764;23.432;2023-04-24T15:54:55;8.52;;;4.50;;
41685;SDS011;27370;42.764;23.432;2023-04-24T15:57:21;10.95;;;5.30;;
41685;SDS011;27370;42.764;23.432;2023-04-24T15:59:47;17.80;;;9.48;;
41685;SDS011;27370;42.764;23.432;2023-04-24T16:02:13;36.58;;;25.10;;
41685;SDS011;27370;42.764;23.432;2023-04-24T16:04:44;10.23;;;5.82;;
41685;SDS011;27370;42.764;23.432;2023-04-24T16:07:11;9.10;;;5.13;;
41685;SDS011;27370;42.764;23.432;2023-04-24T16:09:37;20.45;;;9.05;;
41685;SDS011;27370;42.764;23.432;2023-04-24T16:12:03;16.08;;;7.55;;
41685;SDS011;27370;42.764;23.432;2023-04-24T16:14:29;13.15;;;6.25;;
41685;SDS011;27370;42.764;23.432;2023-04-24T16:16:54;16.73;;;7.85;;
41685;SDS011;27370;42.764;23.432;2023-04-24T16:19:20;14.63;;;7.18;;
41685;SDS011;27370;42.764;23.432;2023-04-24T16:21:46;15.40;;;4.82;;
41685;SDS011;27370;42.764;23.432;2023-04-24T16:24:12;10.18;;;5.30;;
41685;SDS011;27370;42.764;23.432;2023-04-24T16:26:38;10.68;;;5.15;;
41685;SDS011;27370;42.764;23.432;2023-04-24T16:29:04;16.48;;;7.32;;
41685;SDS011;27370;42.764;23.432;2023-04-24T16:31:30;13.15;;;7.43;;
41685;SDS011;27370;42.764;23.432;2023-04-24T16:33:55;11.05;;;6.65;;
41685;SDS011;27370;42.764;23.432;2023-04-24T16:36:21;13.40;;;8.48;;
41685;SDS011;27370;42.764;23.432;2023-04-24T16:38:47;19.17;;;11.13;;
41685;SDS011;27370;42.764;23.432;2023-04-24T16:41:16;16.25;;;9.20;;
41685;SDS011;27370;42.764;23.432;2023-04-24T16:43:42;11.57;;;6.28;;
41685;SDS011;27370;42.764;23.432;2023-04-24T16:46:08;10.07;;;6.47;;
41685;SDS011;27370;42.764;23.432;2023-04-24T16:48:34;9.85;;;6.10;;
41685;SDS011;27370;42.764;23.432;2023-04-24T16:51:00;10.20;;;6.28;;
41685;SDS011;27370;42.764;23.432;2023-04-24T16:53:25;9.23;;;4.75;;
41685;SDS011;27370;42.764;23.432;2023-04-24T16:55:51;9.13;;;5.43;;
41685;SDS011;27370;42.764;23.432;2023-04-24T16:58:17;9.80;;;6.10;;
41685;SDS011;27370;42.764;23.432;2023-04-24T17:00:43;9.90;;;4.63;;
41685;SDS011;27370;42.764;23.432;2023-04-24T17:03:10;10.90;;;5.57;;
41685;SDS011;27370;42.764;23.432;2023-04-24T17:05:35;10.48;;;5.93;;
41685;SDS011;27370;42.764;23.432;2023-04-24T17:08:01;14.55;;;7.30;;
41685;SDS011;27370;42.764;23.432;2023-04-24T17:10:27;19.98;;;9.95;;
41685;SDS011;27370;42.764;23.432;2023-04-24T17:12:54;12.77;;;6.72;;
41685;SDS011;27370;42.764;23.432;2023-04-24T17:15:21;12.45;;;6.88;;
41685;SDS011;27370;42.764;23.432;2023-04-24T17:17:48;11.60;;;6.75;;
41685;SDS011;27370;42.764;23.432;2023-04-24T17:20:14;11.32;;;6.93;;
41685;SDS011;27370;42.764;23.432;2023-04-24T17:22:40;14.48;;;8.43;;
41685;SDS011;27370;42.764;23.432;2023-04-24T17:25:07;22.75;;;10.95;;
41685;SDS011;27370;42.764;23.432;2023-04-24T17:27:33;12.00;;;7.60;;
41685;SDS011;27370;42.764;23.432;2023-04-24T17:29:59;24.10;;;16.27;;
41685;SDS011;27370;42.764;23.432;2023-04-24T17:32:25;13.68;;;9.13;;
41685;SDS011;27370;42.764;23.432;2023-04-24T17:34:51;12.95;;;8.40;;
41685;SDS011;27370;42.764;23.432;2023-04-24T17:37:17;13.00;;;9.23;;
41685;SDS011;27370;42.764;23.432;2023-04-24T17:39:44;11.65;;;8.20;;
41685;SDS011;27370;42.764;23.432;2023-04-24T17:42:10;13.40;;;8.05;;
41685;SDS011;27370;42.764;23.432;2023-04-24T17:44:35;13.75;;;9.35;;
41685;SDS011;27370;42.764;23.432;2023-04-24T17:47:01;14.02;;;9.38;;
41685;SDS011;27370;42.764;23.432;2023-04-24T17:49:28;13.68;;;8.85;;
41685;SDS011;27370;42.764;23.432;2023-04-24T17:51:54;14.82;;;11.07;;
41685;SDS011;27370;42.764;23.432;2023-04-24T17:54:21;14.98;;;10.30;;
41685;SDS011;27370;42.764;23.432;2023-04-24T17:56:46;15.15;;;9.73;;
41685;SDS011;27370;42.764;23.432;2023-04-24T17:59:12;16.85;;;10.90;;
41685;SDS011;27370;42.764;23.432;2023-04-24T18:01:38;13.20;;;8.93;;
41685;SDS011;27370;42.764;23.432;2023-04-24T18:04:03;11.52;;;7.35;;
41685;SDS011;27370;42.764;23.432;2023-04-24T18:06:29;14.15;;;9.05;;
41685;SDS011;27370;42.764;23.432;2023-04-24T18:08:54;13.75;;;9.30;;
41685;SDS011;27370;42.764;23.432;2023-04-24T18:11:20;15.20;;;9.30;;
41685;SDS011;27370;42.764;23.432;2023-04-24T18:13:46;16.25;;;9.13;;
41685;SDS011;27370;42.764;23.432;2023-04-24T18:16:12;14.90;;;9.30;;
41685;SDS011;27370;42.764;23.432;2023-04-24T18:18:38;18.58;;;11.75;;
41685;SDS011;27370;42.764;23.432;2023-04-24T18:21:03;19.95;;;12.45;;
41685;SDS011;27370;42.764;23.432;2023-04-24T18:23:29;18.80;;;12.02;;
41685;SDS011;27370;42.764;23.432;2023-04-24T18:25:55;16.70;;;11.48;;
41685;SDS011;27370;42.764;23.432;2023-04-24T18:28:20;16.35;;;10.65;;
41685;SDS011;27370;42.764;23.432;2023-04-24T18:30:46;16.65;;;11.52;;
41685;SDS011;27370;42.764;23.432;2023-04-24T18:33:11;20.00;;;12.50;;
41685;SDS011;27370;42.764;23.432;2023-04-24T18:35:37;19.90;;;14.07;;
41685;SDS011;27370;42.764;23.432;2023-04-24T18:38:03;17.95;;;13.63;;
41685;SDS011;27370;42.764;23.432;2023-04-24T18:40:30;19.10;;;13.88;;
41685;SDS011;27370;42.764;23.432;2023-04-24T18:42:55;22.17;;;15.65;;
41685;SDS011;27370;42.764;23.432;2023-04-24T18:45:21;22.92;;;17.02;;
41685;SDS011;27370;42.764;23.432;2023-04-24T18:47:46;24.77;;;17.33;;
41685;SDS011;27370;42.764;23.432;2023-04-24T18:50:12;23.30;;;15.20;;
41685;SDS011;27370;42.764;23.432;2023-04-24T18:52:39;18.02;;;12.57;;
41685;SDS011;27370;42.764;23.432;2023-04-24T18:55:04;20.15;;;12.40;;
41685;SDS011;27370;42.764;23.432;2023-04-24T18:57:31;21.20;;;13.90;;
41685;SDS011;27370;42.764;23.432;2023-04-24T18:59:57;1.30;;;1.10;;
41685;SDS011;27370;42.764;23.432;2023-04-24T19:02:23;0.22;;;0.22;;
41685;SDS011;27370;42.764;23.432;2023-04-24T19:04:49;2.97;;;2.10;;
41685;SDS011;27370;42.764;23.432;2023-04-24T19:07:15;0.80;;;0.57;;
41685;SDS011;27370;42.764;23.432;2023-04-24T19:09:40;2.75;;;0.98;;
41685;SDS011;27370;42.764;23.432;2023-04-24T19:12:06;0.20;;;0.20;;
41685;SDS011;27370;42.764;23.432;2023-04-24T19:14:31;0.93;;;0.85;;
41685;SDS011;27370;42.764;23.432;2023-04-24T19:16:57;1.30;;;1.20;;
41685;SDS011;27370;42.764;23.432;2023-04-24T19:19:23;0.35;;;0.35;;
41685;SDS011;27370;42.764;23.432;2023-04-24T19:21:50;3.25;;;1.95;;
41685;SDS011;27370;42.764;23.432;2023-04-24T19:24:16;1.58;;;1.38;;
41685;SDS011;27370;42.764;23.432;2023-04-24T19:26:43;1.13;;;1.02;;
41685;SDS011;27370;42.764;23.432;2023-04-24T19:29:10;0.57;;;0.57;;
41685;SDS011;27370;42.764;23.432;2023-04-24T19:31:35;0.65;;;0.65;;
41685;SDS011;27370;42.764;23.432;2023-04-24T19:34:01;1.55;;;1.00;;
41685;SDS011;27370;42.764;23.432;2023-04-24T19:36:27;0.65;;;0.65;;
41685;SDS011;27370;42.764;23.432;2023-04-24T19:38:54;2.60;;;0.98;;
41685;SDS011;27370;42.764;23.432;2023-04-24T19:41:19;1.95;;;1.13;;
41685;SDS011;27370;42.764;23.432;2023-04-24T19:43:45;2.67;;;1.20;;
41685;SDS011;27370;42.764;23.432;2023-04-24T19:46:12;1.55;;;0.90;;
41685;SDS011;27370;42.764;23.432;2023-04-24T19:48:37;0.80;;;0.80;;
41685;SDS011;27370;42.764;23.432;2023-04-24T19:51:03;1.25;;;1.05;;
41685;SDS011;27370;42.764;23.432;2023-04-24T19:53:28;0.88;;;0.88;;
41685;SDS011;27370;42.764;23.432;2023-04-24T19:55:54;2.35;;;0.95;;
41685;SDS011;27370;42.764;23.432;2023-04-24T19:58:20;0.30;;;0.30;;
41685;SDS011;27370;42.764;23.432;2023-04-24T20:00:45;1.85;;;0.77;;
41685;SDS011;27370;42.764;23.432;2023-04-24T20:03:11;0.25;;;0.25;;
41685;SDS011;27370;42.764;23.432;2023-04-24T20:05:36;0.30;;;0.30;;
41685;SDS011;27370;42.764;23.432;2023-04-24T20:08:03;0.57;;;0.57;;
41685;SDS011;27370;42.764;23.432;2023-04-24T20:10:28;2.05;;;1.67;;
41685;SDS011;27370;42.764;23.432;2023-04-24T20:12:54;1.58;;;1.13;;
41685;SDS011;27370;42.764;23.432;2023-04-24T20:15:20;0.55;;;0.55;;
41685;SDS011;27370;42.764;23.432;2023-04-24T20:17:45;1.17;;;0.95;;
41685;SDS011;27370;42.764;23.432;2023-04-24T20:20:11;0.57;;;0.57;;
41685;SDS011;27370;42.764;23.432;2023-04-24T20:22:37;6.63;;;1.05;;
41685;SDS011;27370;42.764;23.432;2023-04-24T20:25:08;0.80;;;0.75;;
41685;SDS011;27370;42.764;23.432;2023-04-24T20:27:35;0.55;;;0.55;;
41685;SDS011;27370;42.764;23.432;2023-04-24T20:30:01;2.47;;;1.38;;
41685;SDS011;27370;42.764;23.432;2023-04-24T20:32:27;0.73;;;0.73;;
41685;SDS011;27370;42.764;23.432;2023-04-24T20:34:53;4.18;;;1.23;;
41685;SDS011;27370;42.764;23.432;2023-04-24T20:37:19;1.23;;;0.93;;
41685;SDS011;27370;42.764;23.432;2023-04-24T20:39:44;1.27;;;1.20;;
41685;SDS011;27370;42.764;23.432;2023-04-24T20:42:10;1.08;;;0.52;;
41685;SDS011;27370;42.764;23.432;2023-04-24T20:44:37;0.85;;;0.82;;
41685;SDS011;27370;42.764;23.432;2023-04-24T20:47:02;0.77;;;0.65;;
41685;SDS011;27370;42.764;23.432;2023-04-24T20:49:28;0.85;;;0.75;;
41685;SDS011;27370;42.764;23.432;2023-04-24T20:51:54;1.30;;;1.02;;
41685;SDS011;27370;42.764;23.432;2023-04-24T20:54:20;5.60;;;1.95;;
41685;SDS011;27370;42.764;23.432;2023-04-24T20:56:46;0.28;;;0.28;;
41685;SDS011;27370;42.764;23.432;2023-04-24T20:59:11;1.55;;;0.98;;
41685;SDS011;27370;42.764;23.432;2023-04-24T21:01:37;0.40;;;0.30;;
41685;SDS011;27370;42.764;23.432;2023-04-24T21:04:03;0.38;;;0.38;;
41685;SDS011;27370;42.764;23.432;2023-04-24T21:06:28;0.17;;;0.17;;
41685;SDS011;27370;42.764;23.432;2023-04-24T21:08:55;0.95;;;0.85;;
41685;SDS011;27370;42.764;23.432;2023-04-24T21:11:20;0.98;;;0.68;;
41685;SDS011;27370;42.764;23.432;2023-04-24T21:13:46;1.85;;;1.33;;
41685;SDS011;27370;42.764;23.432;2023-04-24T21:16:11;0.20;;;0.20;;
41685;SDS011;27370;42.764;23.432;2023-04-24T21:18:37;0.68;;;0.45;;
41685;SDS011;27370;42.764;23.432;2023-04-24T21:21:06;1.08;;;0.82;;
41685;SDS011;27370;42.764;23.432;2023-04-24T21:23:33;0.70;;;0.47;;
41685;SDS011;27370;42.764;23.432;2023-04-24T21:25:58;0.60;;;0.60;;
41685;SDS011;27370;42.764;23.432;2023-04-24T21:28:24;0.75;;;0.57;;
41685;SDS011;27370;42.764;23.432;2023-04-24T21:30:50;0.63;;;0.63;;
41685;SDS011;27370;42.764;23.432;2023-04-24T21:33:15;1.48;;;1.15;;
41685;SDS011;27370;42.764;23.432;2023-04-24T21:35:41;0.35;;;0.32;;
41685;SDS011;27370;42.764;23.432;2023-04-24T21:38:07;0.63;;;0.63;;
41685;SDS011;27370;42.764;23.432;2023-04-24T21:40:32;0.30;;;0.30;;
41685;SDS011;27370;42.764;23.432;2023-04-24T21:42:58;1.58;;;0.32;;
41685;SDS011;27370;42.764;23.432;2023-04-24T21:45:24;0.55;;;0.55;;
41685;SDS011;27370;42.764;23.432;2023-04-24T21:47:49;0.43;;;0.43;;
41685;SDS011;27370;42.764;23.432;2023-04-24T21:50:15;0.47;;;0.47;;
41685;SDS011;27370;42.764;23.432;2023-04-24T21:52:40;1.20;;;1.10;;
41685;SDS011;27370;42.764;23.432;2023-04-24T21:55:06;0.75;;;0.50;;
41685;SDS011;27370;42.764;23.432;2023-04-24T21:57:32;0.25;;;0.25;;
41685;SDS011;27370;42.764;23.432;2023-04-24T21:59:57;0.98;;;0.73;;
41685;SDS011;27370;42.764;23.432;2023-04-24T22:02:23;0.52;;;0.52;;
41685;SDS011;27370;42.764;23.432;2023-04-24T22:04:49;0.10;;;0.10;;
41685;SDS011;27370;42.764;23.432;2023-04-24T22:07:14;0.28;;;0.28;;
41685;SDS011;27370;42.764;23.432;2023-04-24T22:09:40;0.10;;;0.10;;
41685;SDS011;27370;42.764;23.432;2023-04-24T22:12:05;0.10;;;0.10;;
41685;SDS011;27370;42.764;23.432;2023-04-24T22:14:31;0.10;;;0.10;;
41685;SDS011;27370;42.764;23.432;2023-04-24T22:16:57;0.20;;;0.20;;
41685;SDS011;27370;42.764;23.432;2023-04-24T22:19:22;0.20;;;0.20;;
41685;SDS011;27370;42.764;23.432;2023-04-24T22:21:50;0.30;;;0.30;;
41685;SDS011;27370;42.764;23.432;2023-04-24T22:24:16;0.10;;;0.10;;
41685;SDS011;27370;42.764;23.432;2023-04-24T22:26:42;0.28;;;0.17;;
41685;SDS011;27370;42.764;23.432;2023-04-24T22:29:08;2.00;;;0.55;;
41685;SDS011;27370;42.764;23.432;2023-04-24T22:31:34;0.10;;;0.10;;
41685;SDS011;27370;42.764;23.432;2023-04-24T22:34:00;0.10;;;0.10;;
41685;SDS011;27370;42.764;23.432;2023-04-24T22:36:25;0.10;;;0.10;;
41685;SDS011;27370;42.764;23.432;2023-04-24T22:38:51;0.10;;;0.10;;
41685;SDS011;27370;42.764;23.432;2023-04-24T22:41:17;0.32;;;0.30;;
41685;SDS011;27370;42.764;23.432;2023-04-24T22:43:43;0.20;;;0.20;;
41685;SDS011;27370;42.764;23.432;2023-04-24T22:46:09;0.30;;;0.30;;
41685;SDS011;27370;42.764;23.432;2023-04-24T22:48:35;0.30;;;0.30;;
41685;SDS011;27370;42.764;23.432;2023-04-24T22:51:00;0.13;;;0.13;;
41685;SDS011;27370;42.764;23.432;2023-04-24T22:53:26;0.17;;;0.17;;
41685;SDS011;27370;42.764;23.432;2023-04-24T22:55:54;0.10;;;0.10;;
41685;SDS011;27370;42.764;23.432;2023-04-24T22:58:20;3.25;;;0.40;;
41685;SDS011;27370;42.764;23.432;2023-04-24T23:00:46;0.10;;;0.10;;
41685;SDS011;27370;42.764;23.432;2023-04-24T23:03:12;0.10;;;0.10;;
41685;SDS011;27370;42.764;23.432;2023-04-24T23:05:38;0.52;;;0.30;;
41685;SDS011;27370;42.764;23.432;2023-04-24T23:08:03;0.20;;;0.20;;
41685;SDS011;27370;42.764;23.432;2023-04-24T23:10:29;0.10;;;0.10;;
41685;SDS011;27370;42.764;23.432;2023-04-24T23:12:54;0.63;;;0.45;;
41685;SDS011;27370;42.764;23.432;2023-04-24T23:15:20;0.10;;;0.10;;
41685;SDS011;27370;42.764;23.432;2023-04-24T23:17:45;0.17;;;0.17;;
41685;SDS011;27370;42.764;23.432;2023-04-24T23:20:11;0.38;;;0.38;;
41685;SDS011;27370;42.764;23.432;2023-04-24T23:22:38;0.32;;;0.32;;
41685;SDS011;27370;42.764;23.432;2023-04-24T23:25:04;1.00;;;0.80;;
41685;SDS011;27370;42.764;23.432;2023-04-24T23:27:29;0.10;;;0.10;;
41685;SDS011;27370;42.764;23.432;2023-04-24T23:29:55;0.20;;;0.20;;
41685;SDS011;27370;42.764;23.432;2023-04-24T23:32:20;0.10;;;0.10;;
41685;SDS011;27370;42.764;23.432;2023-04-24T23:34:46;0.20;;;0.20;;
41685;SDS011;27370;42.764;23.432;2023-04-24T23:37:11;0.50;;;0.50;;
41685;SDS011;27370;42.764;23.432;2023-04-24T23:39:37;0.35;;;0.30;;
41685;SDS011;27370;42.764;23.432;2023-04-24T23:42:02;0.20;;;0.20;;
41685;SDS011;27370;42.764;23.432;2023-04-24T23:44:28;0.13;;;0.13;;
41685;SDS011;27370;42.764;23.432;2023-04-24T23:46:54;0.20;;;0.20;;
41685;SDS011;27370;42.764;23.432;2023-04-24T23:49:21;0.25;;;0.25;;
41685;SDS011;27370;42.764;23.432;2023-04-24T23:51:47;0.20;;;0.20;;
41685;SDS011;27370;42.764;23.432;2023-04-24T23:54:12;0.10;;;0.10;;
41685;SDS011;27370;42.764;23.432;2023-04-24T23:56:38;0.30;;;0.30;;
41685;SDS011;27370;42.764;23.432;2023-04-24T23:59:03;0.55;;;0.30;;
